sensor_id;sensor_type;location;lat;lon;timestamp;pressure;altitude;pressure_sealevel;temperature;humidity
15477;BME280;7840;42.702;23.296;2023-12-14T00:00:08;94059.28;;;6.53;100.00
15477;BME280;7840;42.702;23.296;2023-12-14T00:02:36;94056.19;;;6.62;100.00
15477;BME280;7840;42.702;23.296;2023-12-14T00:05:04;94058.19;;;6.76;100.00
15477;BME280;7840;42.702;23.296;2023-12-14T00:07:32;94071.91;;;6.56;100.00
15477;BME280;7840;42.702;23.296;2023-12-14T00:09:59;94058.78;;;6.56;100.00
15477;BME280;7840;42.702;23.296;2023-12-14T00:12:27;94048.38;;;6.67;100.00
15477;BME280;7840;42.702;23.296;2023-12-14T00:14:56;94059.28;;;6.53;100.00
15477;BME280;7840;42.702;23.296;2023-12-14T00:17:23;94084.59;;;6.38;100.00
15477;BME280;7840;42.702;23.296;2023-12-14T00:19:51;94065.38;;;6.37;100.00
15477;BME280;7840;42.702;23.296;2023-12-14T00:22:18;94072.66;;;6.30;100.00
15477;BME280;7840;42.702;23.296;2023-12-14T00:24:46;94073.69;;;6.29;100.00
15477;BME280;7840;42.702;23.296;2023-12-14T00:27:14;94066.97;;;6.38;100.00
15477;BME280;7840;42.702;23.296;2023-12-14T00:29:41;94083.06;;;6.20;100.00
15477;BME280;7840;42.702;23.296;2023-12-14T00:32:14;94070.03;;;6.30;100.00
15477;BME280;7840;42.702;23.296;2023-12-14T00:34:41;94078.06;;;6.40;100.00
15477;BME280;7840;42.702;23.296;2023-12-14T00:37:09;94067.41;;;6.30;100.00
15477;BME280;7840;42.702;23.296;2023-12-14T00:39:36;94073.69;;;6.29;100.00
15477;BME280;7840;42.702;23.296;2023-12-14T00:42:04;94062.72;;;6.32;100.00
15477;BME280;7840;42.702;23.296;2023-12-14T00:44:35;94075.75;;;5.88;100.00
15477;BME280;7840;42.702;23.296;2023-12-14T00:47:03;94078.16;;;5.73;100.00
15477;BME280;7840;42.702;23.296;2023-12-14T00:49:32;94067.44;;;5.91;100.00
15477;BME280;7840;42.702;23.296;2023-12-14T00:52:00;94067.56;;;6.01;100.00
15477;BME280;7840;42.702;23.296;2023-12-14T00:54:28;94058.63;;;6.02;100.00
15477;BME280;7840;42.702;23.296;2023-12-14T00:56:56;94069.41;;;6.01;100.00
15477;BME280;7840;42.702;23.296;2023-12-14T00:59:24;94069.56;;;5.94;100.00
15477;BME280;7840;42.702;23.296;2023-12-14T01:01:51;94074.81;;;5.61;100.00
15477;BME280;7840;42.702;23.296;2023-12-14T01:04:19;94078.81;;;5.63;100.00
15477;BME280;7840;42.702;23.296;2023-12-14T01:06:48;94059.78;;;5.39;100.00
15477;BME280;7840;42.702;23.296;2023-12-14T01:09:15;94072.34;;;5.54;100.00
15477;BME280;7840;42.702;23.296;2023-12-14T01:11:43;94058.19;;;5.55;100.00
15477;BME280;7840;42.702;23.296;2023-12-14T01:14:13;94067.03;;;5.66;100.00
15477;BME280;7840;42.702;23.296;2023-12-14T01:16:41;94064.69;;;5.69;100.00
15477;BME280;7840;42.702;23.296;2023-12-14T01:19:09;94058.31;;;5.82;100.00
15477;BME280;7840;42.702;23.296;2023-12-14T01:21:36;94058.91;;;5.84;100.00
15477;BME280;7840;42.702;23.296;2023-12-14T01:24:06;94054.03;;;5.76;100.00
15477;BME280;7840;42.702;23.296;2023-12-14T01:26:34;94057.22;;;5.78;100.00
15477;BME280;7840;42.702;23.296;2023-12-14T01:29:01;94053.56;;;5.79;100.00
15477;BME280;7840;42.702;23.296;2023-12-14T01:31:29;94055.66;;;5.77;100.00
15477;BME280;7840;42.702;23.296;2023-12-14T01:33:57;94045.94;;;5.78;100.00
15477;BME280;7840;42.702;23.296;2023-12-14T01:36:26;94067.09;;;5.54;100.00
15477;BME280;7840;42.702;23.296;2023-12-14T01:38:53;94059.34;;;5.42;100.00
15477;BME280;7840;42.702;23.296;2023-12-14T01:41:22;94069.34;;;5.45;100.00
15477;BME280;7840;42.702;23.296;2023-12-14T01:43:50;94039.59;;;5.23;100.00
15477;BME280;7840;42.702;23.296;2023-12-14T01:46:18;94063.78;;;5.25;100.00
15477;BME280;7840;42.702;23.296;2023-12-14T01:48:45;94053.44;;;5.35;100.00
15477;BME280;7840;42.702;23.296;2023-12-14T01:51:13;94061.13;;;5.42;100.00
15477;BME280;7840;42.702;23.296;2023-12-14T01:53:40;94047.06;;;5.31;100.00
15477;BME280;7840;42.702;23.296;2023-12-14T01:56:08;94045.31;;;5.37;100.00
15477;BME280;7840;42.702;23.296;2023-12-14T01:58:37;94051.75;;;5.46;100.00
15477;BME280;7840;42.702;23.296;2023-12-14T02:01:10;94045.78;;;5.51;100.00
15477;BME280;7840;42.702;23.296;2023-12-14T02:03:44;94036.53;;;5.65;100.00
15477;BME280;7840;42.702;23.296;2023-12-14T02:06:12;94032.88;;;5.66;100.00
15477;BME280;7840;42.702;23.296;2023-12-14T02:08:40;94041.63;;;5.55;100.00
15477;BME280;7840;42.702;23.296;2023-12-14T02:11:07;94033.69;;;5.49;100.00
15477;BME280;7840;42.702;23.296;2023-12-14T02:13:36;94035.13;;;5.57;100.00
15477;BME280;7840;42.702;23.296;2023-12-14T02:16:05;94035.59;;;5.71;100.00
15477;BME280;7840;42.702;23.296;2023-12-14T02:18:32;94035.13;;;5.24;100.00
15477;BME280;7840;42.702;23.296;2023-12-14T02:21:00;94036.88;;;5.52;100.00
15477;BME280;7840;42.702;23.296;2023-12-14T02:23:29;94016.09;;;5.33;100.00
15477;BME280;7840;42.702;23.296;2023-12-14T02:25:57;94018.72;;;5.33;100.00
15477;BME280;7840;42.702;23.296;2023-12-14T02:28:24;94021.44;;;5.05;100.00
15477;BME280;7840;42.702;23.296;2023-12-14T02:30:52;94025.13;;;5.37;100.00
15477;BME280;7840;42.702;23.296;2023-12-14T02:33:20;94010.63;;;5.52;100.00
15477;BME280;7840;42.702;23.296;2023-12-14T02:35:48;94016.19;;;5.38;100.00
15477;BME280;7840;42.702;23.296;2023-12-14T02:38:15;94024.13;;;5.60;100.00
15477;BME280;7840;42.702;23.296;2023-12-14T02:40:44;94008.69;;;5.64;100.00
15477;BME280;7840;42.702;23.296;2023-12-14T02:43:12;94026.13;;;5.70;100.00
15477;BME280;7840;42.702;23.296;2023-12-14T02:45:40;94038.53;;;5.58;100.00
15477;BME280;7840;42.702;23.296;2023-12-14T02:50:36;94046.59;;;5.51;100.00
15477;BME280;7840;42.702;23.296;2023-12-14T02:53:04;94028.44;;;5.49;100.00
15477;BME280;7840;42.702;23.296;2023-12-14T02:55:31;94041.00;;;5.47;100.00
15477;BME280;7840;42.702;23.296;2023-12-14T02:58:00;94041.19;;;5.58;100.00
15477;BME280;7840;42.702;23.296;2023-12-14T03:00:28;94052.31;;;5.65;100.00
15477;BME280;7840;42.702;23.296;2023-12-14T03:02:56;94031.41;;;5.75;100.00
15477;BME280;7840;42.702;23.296;2023-12-14T03:05:23;94046.56;;;5.68;100.00
15477;BME280;7840;42.702;23.296;2023-12-14T03:07:51;94042.44;;;5.72;100.00
15477;BME280;7840;42.702;23.296;2023-12-14T03:10:19;94037.00;;;5.62;100.00
15477;BME280;7840;42.702;23.296;2023-12-14T03:12:46;94035.00;;;5.86;100.00
15477;BME280;7840;42.702;23.296;2023-12-14T03:15:18;94018.19;;;5.87;100.00
15477;BME280;7840;42.702;23.296;2023-12-14T03:17:49;94024.13;;;5.77;100.00
15477;BME280;7840;42.702;23.296;2023-12-14T03:20:16;94011.03;;;5.43;100.00
15477;BME280;7840;42.702;23.296;2023-12-14T03:22:44;94008.69;;;5.47;100.00
15477;BME280;7840;42.702;23.296;2023-12-14T03:25:12;94016.50;;;5.59;100.00
15477;BME280;7840;42.702;23.296;2023-12-14T03:27:40;94005.66;;;5.72;100.00
15477;BME280;7840;42.702;23.296;2023-12-14T03:30:08;94009.63;;;5.91;100.00
15477;BME280;7840;42.702;23.296;2023-12-14T03:32:37;94002.75;;;5.90;100.00
15477;BME280;7840;42.702;23.296;2023-12-14T03:35:06;94011.59;;;5.84;100.00
15477;BME280;7840;42.702;23.296;2023-12-14T03:37:34;93987.16;;;5.84;100.00
15477;BME280;7840;42.702;23.296;2023-12-14T03:40:02;93998.19;;;5.64;100.00
15477;BME280;7840;42.702;23.296;2023-12-14T03:42:30;93990.91;;;5.71;100.00
15477;BME280;7840;42.702;23.296;2023-12-14T03:44:57;93985.53;;;5.83;100.00
15477;BME280;7840;42.702;23.296;2023-12-14T03:47:25;93959.69;;;5.74;100.00
15477;BME280;7840;42.702;23.296;2023-12-14T03:49:54;93997.16;;;5.65;100.00
15477;BME280;7840;42.702;23.296;2023-12-14T03:52:22;93975.16;;;5.71;100.00
15477;BME280;7840;42.702;23.296;2023-12-14T03:54:49;93989.22;;;5.82;100.00
15477;BME280;7840;42.702;23.296;2023-12-14T03:57:17;93973.63;;;5.75;100.00
15477;BME280;7840;42.702;23.296;2023-12-14T03:59:44;93968.59;;;5.52;100.00
15477;BME280;7840;42.702;23.296;2023-12-14T04:02:12;93966.00;;;5.73;100.00
15477;BME280;7840;42.702;23.296;2023-12-14T04:04:40;93969.41;;;5.74;100.00
15477;BME280;7840;42.702;23.296;2023-12-14T04:07:09;93990.00;;;5.82;100.00
15477;BME280;7840;42.702;23.296;2023-12-14T04:09:36;93981.47;;;5.70;100.00
15477;BME280;7840;42.702;23.296;2023-12-14T04:12:05;93990.00;;;5.82;100.00
15477;BME280;7840;42.702;23.296;2023-12-14T04:14:33;93991.13;;;5.86;100.00
15477;BME280;7840;42.702;23.296;2023-12-14T04:17:00;94000.03;;;5.85;100.00
15477;BME280;7840;42.702;23.296;2023-12-14T04:19:28;93984.41;;;5.95;100.00
15477;BME280;7840;42.702;23.296;2023-12-14T04:21:59;94009.19;;;5.99;100.00
15477;BME280;7840;42.702;23.296;2023-12-14T04:24:40;94004.88;;;5.21;100.00
15477;BME280;7840;42.702;23.296;2023-12-14T04:27:08;94001.41;;;5.49;100.00
15477;BME280;7840;42.702;23.296;2023-12-14T04:29:35;93986.13;;;5.68;100.00
15477;BME280;7840;42.702;23.296;2023-12-14T04:32:03;93993.56;;;5.71;100.00
15477;BME280;7840;42.702;23.296;2023-12-14T04:34:33;93995.44;;;5.37;100.00
15477;BME280;7840;42.702;23.296;2023-12-14T04:37:02;93999.44;;;5.61;100.00
15477;BME280;7840;42.702;23.296;2023-12-14T04:39:38;94005.66;;;5.72;100.00
15477;BME280;7840;42.702;23.296;2023-12-14T04:42:06;93993.31;;;5.72;100.00
15477;BME280;7840;42.702;23.296;2023-12-14T04:44:34;93989.78;;;5.84;100.00
15477;BME280;7840;42.702;23.296;2023-12-14T04:47:01;93993.19;;;5.84;100.00
15477;BME280;7840;42.702;23.296;2023-12-14T04:49:29;93990.25;;;5.81;100.00
15477;BME280;7840;42.702;23.296;2023-12-14T04:51:59;93996.50;;;5.96;100.00
15477;BME280;7840;42.702;23.296;2023-12-14T04:54:34;93997.50;;;5.90;100.00
15477;BME280;7840;42.702;23.296;2023-12-14T04:57:05;94020.25;;;5.63;100.00
15477;BME280;7840;42.702;23.296;2023-12-14T04:59:33;94006.44;;;5.72;100.00
15477;BME280;7840;42.702;23.296;2023-12-14T05:02:01;94005.78;;;5.82;100.00
15477;BME280;7840;42.702;23.296;2023-12-14T05:04:28;94003.88;;;5.78;100.00
15477;BME280;7840;42.702;23.296;2023-12-14T05:06:56;93990.25;;;5.97;100.00
15477;BME280;7840;42.702;23.296;2023-12-14T05:09:30;93985.78;;;5.98;100.00
15477;BME280;7840;42.702;23.296;2023-12-14T05:11:57;93994.84;;;5.90;100.00
15477;BME280;7840;42.702;23.296;2023-12-14T05:14:26;93998.69;;;5.99;100.00
15477;BME280;7840;42.702;23.296;2023-12-14T05:16:55;93984.41;;;5.95;100.00
15477;BME280;7840;42.702;23.296;2023-12-14T05:24:35;94008.47;;;5.87;100.00
15477;BME280;7840;42.702;23.296;2023-12-14T05:27:04;94007.78;;;5.75;100.00
15477;BME280;7840;42.702;23.296;2023-12-14T05:29:33;94010.81;;;5.67;100.00
15477;BME280;7840;42.702;23.296;2023-12-14T05:32:01;94000.19;;;5.57;100.00
15477;BME280;7840;42.702;23.296;2023-12-14T05:34:29;93996.63;;;5.85;100.00
15477;BME280;7840;42.702;23.296;2023-12-14T05:36:56;94009.66;;;5.58;100.00
15477;BME280;7840;42.702;23.296;2023-12-14T05:39:24;94025.19;;;5.42;100.00
15477;BME280;7840;42.702;23.296;2023-12-14T05:41:52;94041.50;;;5.44;100.00
15477;BME280;7840;42.702;23.296;2023-12-14T05:44:20;94031.63;;;5.35;100.00
15477;BME280;7840;42.702;23.296;2023-12-14T05:46:50;94008.53;;;5.54;100.00
15477;BME280;7840;42.702;23.296;2023-12-14T05:49:18;94007.09;;;5.63;100.00
15477;BME280;7840;42.702;23.296;2023-12-14T05:51:46;94017.19;;;5.71;100.00
15477;BME280;7840;42.702;23.296;2023-12-14T05:56:45;94029.06;;;5.57;100.00
15477;BME280;7840;42.702;23.296;2023-12-14T05:59:13;94026.00;;;5.82;100.00
15477;BME280;7840;42.702;23.296;2023-12-14T06:01:43;94019.16;;;5.97;100.00
15477;BME280;7840;42.702;23.296;2023-12-14T06:04:12;94018.16;;;6.03;100.00
15477;BME280;7840;42.702;23.296;2023-12-14T06:06:40;94036.63;;;6.09;100.00
15477;BME280;7840;42.702;23.296;2023-12-14T06:09:11;94025.50;;;6.01;100.00
15477;BME280;7840;42.702;23.296;2023-12-14T06:11:39;94031.88;;;6.06;100.00
15477;BME280;7840;42.702;23.296;2023-12-14T06:14:06;94025.81;;;6.05;100.00
15477;BME280;7840;42.702;23.296;2023-12-14T06:21:42;94037.31;;;5.99;100.00
15477;BME280;7840;42.702;23.296;2023-12-14T06:24:10;94054.56;;;6.12;100.00
15477;BME280;7840;42.702;23.296;2023-12-14T06:26:41;94056.22;;;6.18;100.00
15477;BME280;7840;42.702;23.296;2023-12-14T06:29:09;94056.91;;;5.91;100.00
15477;BME280;7840;42.702;23.296;2023-12-14T06:31:37;94055.72;;;6.21;100.00
15477;BME280;7840;42.702;23.296;2023-12-14T06:34:06;94054.25;;;6.30;100.00
15477;BME280;7840;42.702;23.296;2023-12-14T06:36:34;94060.72;;;6.44;100.00
15477;BME280;7840;42.702;23.296;2023-12-14T06:39:03;94062.97;;;6.57;100.00
15477;BME280;7840;42.702;23.296;2023-12-14T06:41:31;94059.28;;;6.53;100.00
15477;BME280;7840;42.702;23.296;2023-12-14T06:43:58;94068.56;;;6.61;100.00
15477;BME280;7840;42.702;23.296;2023-12-14T06:46:26;94071.06;;;6.51;100.00
15477;BME280;7840;42.702;23.296;2023-12-14T06:48:54;94070.41;;;6.61;100.00
15477;BME280;7840;42.702;23.296;2023-12-14T06:59:09;94066.63;;;7.00;100.00
15477;BME280;7840;42.702;23.296;2023-12-14T07:01:37;94057.81;;;7.17;100.00
15477;BME280;7840;42.702;23.296;2023-12-14T07:04:13;94073.00;;;7.36;100.00
15477;BME280;7840;42.702;23.296;2023-12-14T07:06:41;94074.38;;;7.44;100.00
15477;BME280;7840;42.702;23.296;2023-12-14T07:11:39;94087.38;;;7.56;100.00
15477;BME280;7840;42.702;23.296;2023-12-14T07:14:08;94091.22;;;7.43;100.00
15477;BME280;7840;42.702;23.296;2023-12-14T07:16:36;94099.72;;;7.50;100.00
15477;BME280;7840;42.702;23.296;2023-12-14T07:19:03;94103.06;;;7.73;100.00
15477;BME280;7840;42.702;23.296;2023-12-14T07:21:31;94105.25;;;7.22;100.00
15477;BME280;7840;42.702;23.296;2023-12-14T07:23:59;94111.16;;;7.34;100.00
15477;BME280;7840;42.702;23.296;2023-12-14T07:26:27;94114.53;;;7.61;100.00
15477;BME280;7840;42.702;23.296;2023-12-14T07:28:55;94109.09;;;7.36;100.00
15477;BME280;7840;42.702;23.296;2023-12-14T07:31:24;94102.34;;;7.50;100.00
15477;BME280;7840;42.702;23.296;2023-12-14T07:33:54;94097.94;;;7.93;100.00
15477;BME280;7840;42.702;23.296;2023-12-14T07:36:22;94092.25;;;8.16;100.00
15477;BME280;7840;42.702;23.296;2023-12-14T07:38:50;94101.34;;;8.31;100.00
15477;BME280;7840;42.702;23.296;2023-12-14T07:41:17;94110.84;;;7.94;100.00
15477;BME280;7840;42.702;23.296;2023-12-14T07:43:45;94122.31;;;8.15;100.00
15477;BME280;7840;42.702;23.296;2023-12-14T07:46:13;94109.88;;;8.48;100.00
15477;BME280;7840;42.702;23.296;2023-12-14T07:48:42;94123.16;;;8.63;100.00
15477;BME280;7840;42.702;23.296;2023-12-14T07:51:09;94130.31;;;8.68;100.00
15477;BME280;7840;42.702;23.296;2023-12-14T07:53:37;94125.78;;;8.58;100.00
15477;BME280;7840;42.702;23.296;2023-12-14T07:56:06;94129.53;;;8.77;100.00
15477;BME280;7840;42.702;23.296;2023-12-14T07:58:33;94118.81;;;9.04;100.00
15477;BME280;7840;42.702;23.296;2023-12-14T08:01:01;94129.84;;;8.81;100.00
15477;BME280;7840;42.702;23.296;2023-12-14T08:03:29;94134.47;;;9.21;100.00
15477;BME280;7840;42.702;23.296;2023-12-14T08:05:57;94138.69;;;9.32;100.00
15477;BME280;7840;42.702;23.296;2023-12-14T08:08:25;94124.47;;;9.49;100.00
15477;BME280;7840;42.702;23.296;2023-12-14T08:10:53;94136.63;;;9.60;100.00
15477;BME280;7840;42.702;23.296;2023-12-14T08:13:21;94119.19;;;9.84;100.00
15477;BME280;7840;42.702;23.296;2023-12-14T08:15:48;94125.00;;;9.92;100.00
15477;BME280;7840;42.702;23.296;2023-12-14T08:18:16;94144.31;;;9.92;100.00
15477;BME280;7840;42.702;23.296;2023-12-14T08:20:44;94142.19;;;9.99;100.00
15477;BME280;7840;42.702;23.296;2023-12-14T08:23:13;94131.88;;;10.18;100.00
15477;BME280;7840;42.702;23.296;2023-12-14T08:25:40;94135.84;;;10.31;100.00
15477;BME280;7840;42.702;23.296;2023-12-14T08:28:08;94139.78;;;10.54;100.00
15477;BME280;7840;42.702;23.296;2023-12-14T08:30:36;94133.66;;;10.63;100.00
15477;BME280;7840;42.702;23.296;2023-12-14T08:33:05;94129.69;;;10.71;100.00
15477;BME280;7840;42.702;23.296;2023-12-14T08:35:36;94140.44;;;10.95;100.00
15477;BME280;7840;42.702;23.296;2023-12-14T08:38:04;94154.13;;;11.17;100.00
15477;BME280;7840;42.702;23.296;2023-12-14T08:40:33;94143.72;;;11.31;100.00
15477;BME280;7840;42.702;23.296;2023-12-14T08:43:01;94134.06;;;11.45;100.00
15477;BME280;7840;42.702;23.296;2023-12-14T08:45:29;94129.91;;;11.39;100.00
15477;BME280;7840;42.702;23.296;2023-12-14T08:47:57;94131.41;;;11.50;100.00
15477;BME280;7840;42.702;23.296;2023-12-14T08:50:24;94144.63;;;11.56;100.00
15477;BME280;7840;42.702;23.296;2023-12-14T08:52:52;94141.88;;;11.71;100.00
15477;BME280;7840;42.702;23.296;2023-12-14T08:55:20;94131.72;;;11.88;100.00
15477;BME280;7840;42.702;23.296;2023-12-14T08:57:49;94128.94;;;12.03;100.00
15477;BME280;7840;42.702;23.296;2023-12-14T09:00:17;94143.44;;;11.82;100.00
15477;BME280;7840;42.702;23.296;2023-12-14T09:02:46;94147.94;;;12.16;100.00
15477;BME280;7840;42.702;23.296;2023-12-14T09:05:15;94148.88;;;12.30;100.00
15477;BME280;7840;42.702;23.296;2023-12-14T09:07:45;94141.22;;;12.52;100.00
15477;BME280;7840;42.702;23.296;2023-12-14T09:10:13;94146.28;;;12.25;100.00
15477;BME280;7840;42.702;23.296;2023-12-14T09:12:40;94129.91;;;12.42;100.00
15477;BME280;7840;42.702;23.296;2023-12-14T09:15:10;94130.97;;;12.70;100.00
15477;BME280;7840;42.702;23.296;2023-12-14T09:17:37;94127.56;;;12.88;100.00
15477;BME280;7840;42.702;23.296;2023-12-14T09:20:06;94134.34;;;12.99;100.00
15477;BME280;7840;42.702;23.296;2023-12-14T09:22:34;94134.22;;;13.09;100.00
15477;BME280;7840;42.702;23.296;2023-12-14T09:25:02;94126.97;;;13.15;100.00
15477;BME280;7840;42.702;23.296;2023-12-14T09:27:30;94124.50;;;13.24;100.00
15477;BME280;7840;42.702;23.296;2023-12-14T09:29:58;94142.50;;;13.32;98.07
15477;BME280;7840;42.702;23.296;2023-12-14T09:32:27;94133.34;;;13.38;100.00
15477;BME280;7840;42.702;23.296;2023-12-14T09:34:56;94140.53;;;13.37;100.00
15477;BME280;7840;42.702;23.296;2023-12-14T09:37:24;94153.91;;;13.08;100.00
15477;BME280;7840;42.702;23.296;2023-12-14T09:39:51;94155.66;;;12.41;100.00
15477;BME280;7840;42.702;23.296;2023-12-14T09:42:20;94154.19;;;12.30;100.00
15477;BME280;7840;42.702;23.296;2023-12-14T09:44:48;94151.25;;;12.31;100.00
15477;BME280;7840;42.702;23.296;2023-12-14T09:47:16;94152.03;;;12.32;100.00
15477;BME280;7840;42.702;23.296;2023-12-14T09:49:48;94145.28;;;12.45;100.00
15477;BME280;7840;42.702;23.296;2023-12-14T09:52:17;94150.53;;;12.21;100.00
15477;BME280;7840;42.702;23.296;2023-12-14T09:54:45;94162.19;;;12.25;100.00
15477;BME280;7840;42.702;23.296;2023-12-14T09:57:12;94160.63;;;12.53;100.00
15477;BME280;7840;42.702;23.296;2023-12-14T09:59:40;94159.72;;;12.04;100.00
15477;BME280;7840;42.702;23.296;2023-12-14T10:02:10;94164.09;;;12.19;100.00
15477;BME280;7840;42.702;23.296;2023-12-14T10:04:38;94160.31;;;12.30;100.00
15477;BME280;7840;42.702;23.296;2023-12-14T10:07:07;94159.94;;;12.42;100.00
15477;BME280;7840;42.702;23.296;2023-12-14T10:12:07;94163.06;;;12.73;100.00
15477;BME280;7840;42.702;23.296;2023-12-14T10:14:36;94157.88;;;12.87;100.00
15477;BME280;7840;42.702;23.296;2023-12-14T10:17:21;94153.63;;;12.86;100.00
15477;BME280;7840;42.702;23.296;2023-12-14T10:19:55;94164.97;;;12.68;100.00
15477;BME280;7840;42.702;23.296;2023-12-14T10:22:26;94156.97;;;12.73;100.00
15477;BME280;7840;42.702;23.296;2023-12-14T10:24:58;94152.09;;;12.56;100.00
15477;BME280;7840;42.702;23.296;2023-12-14T10:27:27;94149.50;;;12.51;100.00
15477;BME280;7840;42.702;23.296;2023-12-14T10:29:56;94144.19;;;12.51;100.00
15477;BME280;7840;42.702;23.296;2023-12-14T10:32:24;94148.75;;;12.45;100.00
15477;BME280;7840;42.702;23.296;2023-12-14T10:34:51;94159.06;;;12.47;100.00
15477;BME280;7840;42.702;23.296;2023-12-14T10:37:19;94158.59;;;12.11;100.00
15477;BME280;7840;42.702;23.296;2023-12-14T10:39:50;94169.47;;;11.75;100.00
15477;BME280;7840;42.702;23.296;2023-12-14T10:42:21;94172.19;;;11.60;100.00
15477;BME280;7840;42.702;23.296;2023-12-14T10:44:52;94175.47;;;11.41;100.00
15477;BME280;7840;42.702;23.296;2023-12-14T10:47:21;94177.63;;;11.39;100.00
15477;BME280;7840;42.702;23.296;2023-12-14T10:49:51;94185.53;;;11.44;100.00
15477;BME280;7840;42.702;23.296;2023-12-14T10:52:19;94193.22;;;11.46;100.00
15477;BME280;7840;42.702;23.296;2023-12-14T10:54:54;94189.22;;;11.54;100.00
15477;BME280;7840;42.702;23.296;2023-12-14T10:57:24;94202.78;;;11.42;100.00
15477;BME280;7840;42.702;23.296;2023-12-14T10:59:58;94197.31;;;11.18;100.00
15477;BME280;7840;42.702;23.296;2023-12-14T11:02:26;94215.97;;;10.92;100.00
15477;BME280;7840;42.702;23.296;2023-12-14T11:05:00;94216.25;;;10.76;100.00
15477;BME280;7840;42.702;23.296;2023-12-14T11:07:45;94211.50;;;10.67;100.00
15477;BME280;7840;42.702;23.296;2023-12-14T11:10:19;94231.38;;;10.60;100.00
15477;BME280;7840;42.702;23.296;2023-12-14T11:12:56;94228.22;;;10.48;100.00
15477;BME280;7840;42.702;23.296;2023-12-14T11:15:24;94249.34;;;10.22;100.00
15477;BME280;7840;42.702;23.296;2023-12-14T11:21:01;94247.50;;;10.02;100.00
15477;BME280;7840;42.702;23.296;2023-12-14T11:23:31;94262.53;;;9.86;100.00
15477;BME280;7840;42.702;23.296;2023-12-14T11:26:03;94242.44;;;9.80;100.00
15477;BME280;7840;42.702;23.296;2023-12-14T11:28:33;94257.50;;;9.75;100.00
15477;BME280;7840;42.702;23.296;2023-12-14T11:31:01;94258.78;;;9.67;100.00
15477;BME280;7840;42.702;23.296;2023-12-14T11:33:33;94277.81;;;9.59;100.00
15477;BME280;7840;42.702;23.296;2023-12-14T11:36:02;94272.53;;;9.54;100.00
15477;BME280;7840;42.702;23.296;2023-12-14T11:38:31;94276.19;;;9.48;100.00
15477;BME280;7840;42.702;23.296;2023-12-14T11:41:10;94268.19;;;9.32;100.00
15477;BME280;7840;42.702;23.296;2023-12-14T11:43:44;94277.25;;;9.52;100.00
15477;BME280;7840;42.702;23.296;2023-12-14T11:46:13;94274.03;;;9.35;100.00
15477;BME280;7840;42.702;23.296;2023-12-14T11:48:44;94288.22;;;9.23;100.00
15477;BME280;7840;42.702;23.296;2023-12-14T11:51:14;94302.50;;;9.22;100.00
15477;BME280;7840;42.702;23.296;2023-12-14T11:53:45;94298.53;;;9.20;100.00
15477;BME280;7840;42.702;23.296;2023-12-14T11:56:19;94294.53;;;9.17;100.00
15477;BME280;7840;42.702;23.296;2023-12-14T11:59:11;94322.53;;;9.13;100.00
15477;BME280;7840;42.702;23.296;2023-12-14T12:01:39;94300.91;;;9.21;100.00
15477;BME280;7840;42.702;23.296;2023-12-14T12:04:09;94298.75;;;9.13;100.00
15477;BME280;7840;42.702;23.296;2023-12-14T12:06:40;94315.72;;;9.22;100.00
15477;BME280;7840;42.702;23.296;2023-12-14T12:09:08;94306.69;;;9.18;100.00
15477;BME280;7840;42.702;23.296;2023-12-14T12:11:38;94326.78;;;9.14;100.00
15477;BME280;7840;42.702;23.296;2023-12-14T12:14:06;94333.13;;;9.13;100.00
15477;BME280;7840;42.702;23.296;2023-12-14T12:16:34;94314.06;;;9.11;100.00
15477;BME280;7840;42.702;23.296;2023-12-14T12:19:01;94341.28;;;9.12;100.00
15477;BME280;7840;42.702;23.296;2023-12-14T12:21:30;94324.28;;;8.97;100.00
15477;BME280;7840;42.702;23.296;2023-12-14T12:23:57;94343.81;;;8.96;100.00
15477;BME280;7840;42.702;23.296;2023-12-14T12:26:27;94347.22;;;8.92;100.00
15477;BME280;7840;42.702;23.296;2023-12-14T12:28:57;94338.25;;;8.93;100.00
15477;BME280;7840;42.702;23.296;2023-12-14T12:31:25;94334.00;;;8.87;100.00
15477;BME280;7840;42.702;23.296;2023-12-14T12:33:52;94341.34;;;8.85;100.00
15477;BME280;7840;42.702;23.296;2023-12-14T12:36:20;94338.97;;;8.83;100.00
15477;BME280;7840;42.702;23.296;2023-12-14T12:38:48;94317.22;;;8.71;100.00
15477;BME280;7840;42.702;23.296;2023-12-14T12:41:15;94348.19;;;8.81;100.00
15477;BME280;7840;42.702;23.296;2023-12-14T12:43:50;94328.34;;;8.73;100.00
15477;BME280;7840;42.702;23.296;2023-12-14T12:46:20;94332.31;;;8.75;100.00
15477;BME280;7840;42.702;23.296;2023-12-14T12:48:48;94349.47;;;8.73;100.00
15477;BME280;7840;42.702;23.296;2023-12-14T12:51:17;94335.38;;;8.62;100.00
15477;BME280;7840;42.702;23.296;2023-12-14T12:53:45;94334.41;;;8.73;100.00
15477;BME280;7840;42.702;23.296;2023-12-14T12:56:13;94352.06;;;8.68;100.00
15477;BME280;7840;42.702;23.296;2023-12-14T12:58:46;94334.47;;;8.79;100.00
15477;BME280;7840;42.702;23.296;2023-12-14T13:01:21;94343.88;;;8.69;100.00
15477;BME280;7840;42.702;23.296;2023-12-14T13:03:53;94356.81;;;8.71;100.00
15477;BME280;7840;42.702;23.296;2023-12-14T13:06:24;94345.13;;;8.94;100.00
15477;BME280;7840;42.702;23.296;2023-12-14T13:08:52;94356.16;;;8.86;100.00
15477;BME280;7840;42.702;23.296;2023-12-14T13:11:20;94342.97;;;8.91;100.00
15477;BME280;7840;42.702;23.296;2023-12-14T13:13:47;94333.84;;;8.66;100.00
15477;BME280;7840;42.702;23.296;2023-12-14T13:16:15;94366.25;;;8.62;100.00
15477;BME280;7840;42.702;23.296;2023-12-14T13:18:44;94337.06;;;8.41;100.00
15477;BME280;7840;42.702;23.296;2023-12-14T13:21:13;94350.00;;;8.43;100.00
15477;BME280;7840;42.702;23.296;2023-12-14T13:23:40;94362.53;;;8.31;100.00
15477;BME280;7840;42.702;23.296;2023-12-14T13:26:08;94365.72;;;8.33;100.00
15477;BME280;7840;42.702;23.296;2023-12-14T13:28:36;94361.94;;;8.23;100.00
15477;BME280;7840;42.702;23.296;2023-12-14T13:31:04;94354.97;;;8.12;100.00
15477;BME280;7840;42.702;23.296;2023-12-14T13:33:32;94341.78;;;8.12;100.00
15477;BME280;7840;42.702;23.296;2023-12-14T13:36:01;94348.63;;;8.13;100.00